Pagrindinis puslapis
METAR-TAF:

METAR-TAF

Oro uostai :

Mitiga International Airport

Tripolis, Libija

platuma: 32-54N, ilguma: 13-17E, Aukštis: 11 m

METAR: trūkstamas

Laikas: 09:58 (07:58 UTC)

Prognozė

Ataskaita buvo paskelbta 2 valandos ir 58 minutes, ne 05:00 UTC
Prognozė galioja nuo 06 metu 06 UTC su 07 metu 06 UTC
Vėjas 2 kt nuo kintamojo kryptimis
Matomumas: 8000 m
Tapsmas
nuo 06 metu 10 UTC su 06 metu 12 UTC
Vėjas 10 kt iš Šiaurės/Šiaurės Rytų
Tapsmas
nuo 06 metu 18 UTC su 06 metu 20 UTC
Vėjas 10 kt iš Rytų
Tapsmas
nuo 07 metu 00 UTC su 07 metu 02 UTC
Vėjas 2 kt nuo kintamojo kryptimis
Tikimybė 40%
nuo 07 metu 03 UTC su 07 metu 06 UTC
Matomumas: 5000 m
rūkana

TAF: HLLM 060500Z 0606/0706 VRB02KT 8000 NSC BECMG 0610/0612 03010KT BECMG 0618/0620 09010KT BECMG 0700/0702 VRB02KT PROB40 0703/0706 5000 BR

Orai ataskaitas ir orų prognozės (METAR, TAF).

turimą stotys yra geltonos ir raudonos taškus žemėlapyje.

Perkelti pele per norėdami pamatyti stoties vardą.

Tada spustelėkite, norėdami matyti oro stebėjimo ir prognozės.

Norėdami pakeisti žemėlapį: spustelėkite ant žalios mygtukų su juodo kryžiaus žemyn,; žalią mygtuką su brūkšneliu, jei norite nutolinti; arba žalių rodyklių gretimoms žemėlapius.


METAR-TAF: